Blodgett, Texas
Current Conditions -  °F | °C
As of 8:35 PM on Wednesday 17 Dec 2014 (Local Time) from KOSA Reporting Station
Broken Clouds Broken Clouds  
Wind Chill: 34°   Ceiling: 3900
Heat Index: 40°   Visibility: 4mi
Dew Point: 40°   Wind: 9mph
Humidity: 98%   Direction: 40°NE
Pressure: 30.21"   Gusts: NA
Location:  32.9352°N, 94.9553°W
Report Text: KOSA 180235Z AUTO 04008KT 4SM SCT019 SCT025 BKN039 05/04 A3021 RMK AO1 P0010 T00450042
Loading
Personal Weather Stations






























Interactive Weather Map New forecast layout! Learn more

10-Day Weather Forecast

Advertisements
Track Severe Weather on mobile